Gaston, Arkansas
Current Conditions -  °F | °C
As of 12:53 PM on Friday 28 Nov 2014 (Local Time) from KMWT Reporting Station
Clear Clear  
Wind Chill: 57°   Ceiling: Unl
Heat Index: 57°   Visibility: 10mi
Dew Point: 34°   Wind: 5mph
Humidity: 42%   Direction: NA
Pressure: 30.14"   Gusts: NA
Location:  34.537°N, 93.6725°W
Report Text: KMWT 281853Z AUTO VRB04KT 10SM CLR 14/01 A3014 RMK AO2 SLP212 T01390011
Loading
Personal Weather Stations






























Interactive Weather Map New forecast layout! Learn more

10-Day Weather Forecast

Advertisements
Track Severe Weather on mobile